sensor_id;sensor_type;location;lat;lon;timestamp;P1;durP1;ratioP1;P2;durP2;ratioP2
1026;SDS011;502;48.746;9.214;2024-01-16T00:00:40;6.83;;;4.90;;
1026;SDS011;502;48.746;9.214;2024-01-16T00:03:06;8.87;;;4.73;;
1026;SDS011;502;48.746;9.214;2024-01-16T00:05:33;8.07;;;4.60;;
1026;SDS011;502;48.746;9.214;2024-01-16T00:07:59;7.00;;;4.90;;
1026;SDS011;502;48.746;9.214;2024-01-16T00:10:26;8.07;;;5.07;;
1026;SDS011;502;48.746;9.214;2024-01-16T00:12:54;6.10;;;5.20;;
1026;SDS011;502;48.746;9.214;2024-01-16T00:15:21;6.90;;;3.70;;
1026;SDS011;502;48.746;9.214;2024-01-16T00:17:47;7.17;;;5.27;;
1026;SDS011;502;48.746;9.214;2024-01-16T00:20:14;8.80;;;4.50;;
1026;SDS011;502;48.746;9.214;2024-01-16T00:22:41;7.87;;;4.70;;
1026;SDS011;502;48.746;9.214;2024-01-16T00:25:08;6.90;;;5.33;;
1026;SDS011;502;48.746;9.214;2024-01-16T00:27:35;6.73;;;3.97;;
1026;SDS011;502;48.746;9.214;2024-01-16T00:30:03;5.50;;;3.70;;
1026;SDS011;502;48.746;9.214;2024-01-16T00:32:31;6.40;;;4.53;;
1026;SDS011;502;48.746;9.214;2024-01-16T00:34:58;8.30;;;5.07;;
1026;SDS011;502;48.746;9.214;2024-01-16T00:37:24;6.50;;;4.30;;
1026;SDS011;502;48.746;9.214;2024-01-16T00:39:51;6.23;;;4.30;;
1026;SDS011;502;48.746;9.214;2024-01-16T00:42:17;5.43;;;4.07;;
1026;SDS011;502;48.746;9.214;2024-01-16T00:44:44;6.03;;;4.57;;
1026;SDS011;502;48.746;9.214;2024-01-16T00:47:12;6.50;;;4.90;;
1026;SDS011;502;48.746;9.214;2024-01-16T00:49:38;6.23;;;4.30;;
1026;SDS011;502;48.746;9.214;2024-01-16T00:52:05;6.90;;;4.73;;
1026;SDS011;502;48.746;9.214;2024-01-16T00:54:32;6.27;;;4.10;;
1026;SDS011;502;48.746;9.214;2024-01-16T00:56:59;8.50;;;4.50;;
1026;SDS011;502;48.746;9.214;2024-01-16T00:59:25;5.40;;;3.63;;
1026;SDS011;502;48.746;9.214;2024-01-16T01:01:52;5.53;;;3.93;;
1026;SDS011;502;48.746;9.214;2024-01-16T01:04:20;6.30;;;4.00;;
1026;SDS011;502;48.746;9.214;2024-01-16T01:06:46;5.70;;;3.67;;
1026;SDS011;502;48.746;9.214;2024-01-16T01:09:13;6.90;;;4.30;;
1026;SDS011;502;48.746;9.214;2024-01-16T01:11:40;7.33;;;4.80;;
1026;SDS011;502;48.746;9.214;2024-01-16T01:14:06;6.50;;;3.70;;
1026;SDS011;502;48.746;9.214;2024-01-16T01:16:33;4.63;;;3.40;;
1026;SDS011;502;48.746;9.214;2024-01-16T01:18:59;8.40;;;4.97;;
1026;SDS011;502;48.746;9.214;2024-01-16T01:21:27;8.27;;;4.27;;
1026;SDS011;502;48.746;9.214;2024-01-16T01:23:54;7.73;;;5.10;;
1026;SDS011;502;48.746;9.214;2024-01-16T01:26:20;6.80;;;4.10;;
1026;SDS011;502;48.746;9.214;2024-01-16T01:28:47;5.90;;;3.87;;
1026;SDS011;502;48.746;9.214;2024-01-16T01:31:13;6.27;;;3.57;;
1026;SDS011;502;48.746;9.214;2024-01-16T01:33:40;5.03;;;3.47;;
1026;SDS011;502;48.746;9.214;2024-01-16T01:36:07;5.33;;;4.30;;
1026;SDS011;502;48.746;9.214;2024-01-16T01:38:35;6.10;;;4.50;;
1026;SDS011;502;48.746;9.214;2024-01-16T01:41:02;6.53;;;3.60;;
1026;SDS011;502;48.746;9.214;2024-01-16T01:43:29;7.47;;;4.13;;
1026;SDS011;502;48.746;9.214;2024-01-16T01:45:58;5.17;;;3.67;;
1026;SDS011;502;48.746;9.214;2024-01-16T01:48:32;6.73;;;4.20;;
1026;SDS011;502;48.746;9.214;2024-01-16T01:50:59;6.30;;;4.37;;
1026;SDS011;502;48.746;9.214;2024-01-16T01:53:25;5.83;;;4.47;;
1026;SDS011;502;48.746;9.214;2024-01-16T01:55:54;6.70;;;4.33;;
1026;SDS011;502;48.746;9.214;2024-01-16T01:58:21;7.70;;;4.30;;
1026;SDS011;502;48.746;9.214;2024-01-16T02:00:48;8.03;;;4.00;;
1026;SDS011;502;48.746;9.214;2024-01-16T02:03:15;5.33;;;4.00;;
1026;SDS011;502;48.746;9.214;2024-01-16T02:05:42;7.37;;;4.50;;
1026;SDS011;502;48.746;9.214;2024-01-16T02:08:08;4.43;;;3.40;;
1026;SDS011;502;48.746;9.214;2024-01-16T02:10:35;6.77;;;4.30;;
1026;SDS011;502;48.746;9.214;2024-01-16T02:13:05;5.53;;;4.00;;
1026;SDS011;502;48.746;9.214;2024-01-16T02:15:31;6.03;;;4.30;;
1026;SDS011;502;48.746;9.214;2024-01-16T02:17:58;4.70;;;3.33;;
1026;SDS011;502;48.746;9.214;2024-01-16T02:20:24;6.23;;;4.27;;
1026;SDS011;502;48.746;9.214;2024-01-16T02:22:51;6.07;;;4.27;;
1026;SDS011;502;48.746;9.214;2024-01-16T02:25:21;7.33;;;4.10;;
1026;SDS011;502;48.746;9.214;2024-01-16T02:27:48;6.03;;;3.97;;
1026;SDS011;502;48.746;9.214;2024-01-16T02:30:15;6.40;;;4.20;;
1026;SDS011;502;48.746;9.214;2024-01-16T02:32:41;5.30;;;3.70;;
1026;SDS011;502;48.746;9.214;2024-01-16T02:35:08;6.10;;;4.00;;
1026;SDS011;502;48.746;9.214;2024-01-16T02:37:35;5.23;;;4.03;;
1026;SDS011;502;48.746;9.214;2024-01-16T02:40:01;5.30;;;4.00;;
1026;SDS011;502;48.746;9.214;2024-01-16T02:42:32;6.20;;;4.57;;
1026;SDS011;502;48.746;9.214;2024-01-16T02:44:59;4.67;;;3.47;;
1026;SDS011;502;48.746;9.214;2024-01-16T02:47:25;4.77;;;3.20;;
1026;SDS011;502;48.746;9.214;2024-01-16T02:49:52;6.23;;;3.90;;
1026;SDS011;502;48.746;9.214;2024-01-16T02:52:18;6.53;;;3.87;;
1026;SDS011;502;48.746;9.214;2024-01-16T02:54:45;4.20;;;3.37;;
1026;SDS011;502;48.746;9.214;2024-01-16T02:57:12;6.27;;;3.67;;
1026;SDS011;502;48.746;9.214;2024-01-16T02:59:42;7.90;;;4.03;;
1026;SDS011;502;48.746;9.214;2024-01-16T03:02:09;3.73;;;2.80;;
1026;SDS011;502;48.746;9.214;2024-01-16T03:04:36;5.67;;;4.20;;
1026;SDS011;502;48.746;9.214;2024-01-16T03:07:03;7.17;;;4.23;;
1026;SDS011;502;48.746;9.214;2024-01-16T03:09:29;6.03;;;3.83;;
1026;SDS011;502;48.746;9.214;2024-01-16T03:11:56;6.37;;;4.50;;
1026;SDS011;502;48.746;9.214;2024-01-16T03:14:23;7.50;;;4.30;;
1026;SDS011;502;48.746;9.214;2024-01-16T03:16:51;8.63;;;4.10;;
1026;SDS011;502;48.746;9.214;2024-01-16T03:19:18;5.20;;;3.17;;
1026;SDS011;502;48.746;9.214;2024-01-16T03:21:44;5.40;;;3.70;;
1026;SDS011;502;48.746;9.214;2024-01-16T03:24:11;6.00;;;4.00;;
1026;SDS011;502;48.746;9.214;2024-01-16T03:26:37;5.53;;;4.13;;
1026;SDS011;502;48.746;9.214;2024-01-16T03:29:04;5.50;;;3.93;;
1026;SDS011;502;48.746;9.214;2024-01-16T03:31:31;8.10;;;3.87;;
1026;SDS011;502;48.746;9.214;2024-01-16T03:33:59;6.43;;;4.17;;
1026;SDS011;502;48.746;9.214;2024-01-16T03:36:27;5.13;;;3.00;;
1026;SDS011;502;48.746;9.214;2024-01-16T03:38:53;5.60;;;3.90;;
1026;SDS011;502;48.746;9.214;2024-01-16T03:41:20;5.60;;;4.07;;
1026;SDS011;502;48.746;9.214;2024-01-16T03:43:46;3.77;;;3.37;;
1026;SDS011;502;48.746;9.214;2024-01-16T03:46:13;5.37;;;4.03;;
1026;SDS011;502;48.746;9.214;2024-01-16T03:48:39;6.87;;;4.00;;
1026;SDS011;502;48.746;9.214;2024-01-16T03:51:07;7.40;;;4.30;;
1026;SDS011;502;48.746;9.214;2024-01-16T03:53:35;6.27;;;4.37;;
1026;SDS011;502;48.746;9.214;2024-01-16T03:56:01;6.00;;;4.07;;
1026;SDS011;502;48.746;9.214;2024-01-16T03:58:28;5.63;;;3.83;;
1026;SDS011;502;48.746;9.214;2024-01-16T04:00:54;5.13;;;3.97;;
1026;SDS011;502;48.746;9.214;2024-01-16T04:03:20;5.10;;;3.47;;
1026;SDS011;502;48.746;9.214;2024-01-16T04:05:46;5.77;;;4.03;;
1026;SDS011;502;48.746;9.214;2024-01-16T04:08:14;5.67;;;3.73;;
1026;SDS011;502;48.746;9.214;2024-01-16T04:10:41;8.53;;;3.60;;
1026;SDS011;502;48.746;9.214;2024-01-16T04:13:08;4.53;;;3.23;;
1026;SDS011;502;48.746;9.214;2024-01-16T04:15:37;5.60;;;3.57;;
1026;SDS011;502;48.746;9.214;2024-01-16T04:18:04;5.40;;;3.17;;
1026;SDS011;502;48.746;9.214;2024-01-16T04:20:31;4.43;;;3.00;;
1026;SDS011;502;48.746;9.214;2024-01-16T04:22:57;5.73;;;3.00;;
1026;SDS011;502;48.746;9.214;2024-01-16T04:25:25;5.50;;;3.40;;
1026;SDS011;502;48.746;9.214;2024-01-16T04:27:52;6.60;;;3.77;;
1026;SDS011;502;48.746;9.214;2024-01-16T04:30:18;5.70;;;4.27;;
1026;SDS011;502;48.746;9.214;2024-01-16T04:32:45;5.57;;;3.77;;
1026;SDS011;502;48.746;9.214;2024-01-16T04:35:12;4.50;;;3.00;;
1026;SDS011;502;48.746;9.214;2024-01-16T04:37:38;5.30;;;4.20;;
1026;SDS011;502;48.746;9.214;2024-01-16T04:40:05;4.13;;;3.30;;
1026;SDS011;502;48.746;9.214;2024-01-16T04:42:33;5.27;;;3.90;;
1026;SDS011;502;48.746;9.214;2024-01-16T04:45:00;5.10;;;3.80;;
1026;SDS011;502;48.746;9.214;2024-01-16T04:47:27;5.40;;;3.33;;
1026;SDS011;502;48.746;9.214;2024-01-16T04:49:53;7.80;;;3.70;;
1026;SDS011;502;48.746;9.214;2024-01-16T04:52:20;5.77;;;3.70;;
1026;SDS011;502;48.746;9.214;2024-01-16T04:54:46;6.00;;;3.80;;
1026;SDS011;502;48.746;9.214;2024-01-16T04:57:13;5.77;;;3.40;;
1026;SDS011;502;48.746;9.214;2024-01-16T05:02:42;4.20;;;2.63;;
1026;SDS011;502;48.746;9.214;2024-01-16T05:05:08;5.33;;;3.83;;
1026;SDS011;502;48.746;9.214;2024-01-16T05:07:35;4.13;;;3.20;;
1026;SDS011;502;48.746;9.214;2024-01-16T05:10:02;5.30;;;3.27;;
1026;SDS011;502;48.746;9.214;2024-01-16T05:12:28;5.17;;;3.03;;
1026;SDS011;502;48.746;9.214;2024-01-16T05:14:55;4.80;;;2.50;;
1026;SDS011;502;48.746;9.214;2024-01-16T05:17:23;5.17;;;3.80;;
1026;SDS011;502;48.746;9.214;2024-01-16T05:19:50;7.67;;;3.60;;
1026;SDS011;502;48.746;9.214;2024-01-16T05:22:16;5.97;;;3.30;;
1026;SDS011;502;48.746;9.214;2024-01-16T05:24:44;6.33;;;3.57;;
1026;SDS011;502;48.746;9.214;2024-01-16T05:27:10;4.30;;;3.17;;
1026;SDS011;502;48.746;9.214;2024-01-16T05:29:37;4.40;;;3.30;;
1026;SDS011;502;48.746;9.214;2024-01-16T05:32:04;5.57;;;3.63;;
1026;SDS011;502;48.746;9.214;2024-01-16T05:34:33;5.40;;;3.67;;
1026;SDS011;502;48.746;9.214;2024-01-16T05:36:59;5.63;;;3.03;;
1026;SDS011;502;48.746;9.214;2024-01-16T05:39:26;5.13;;;3.27;;
1026;SDS011;502;48.746;9.214;2024-01-16T05:41:52;5.27;;;3.20;;
1026;SDS011;502;48.746;9.214;2024-01-16T05:44:21;5.07;;;3.40;;
1026;SDS011;502;48.746;9.214;2024-01-16T05:46:47;4.83;;;3.03;;
1026;SDS011;502;48.746;9.214;2024-01-16T05:49:14;4.43;;;3.17;;
1026;SDS011;502;48.746;9.214;2024-01-16T05:51:42;4.50;;;3.63;;
1026;SDS011;502;48.746;9.214;2024-01-16T05:54:08;5.10;;;3.47;;
1026;SDS011;502;48.746;9.214;2024-01-16T05:56:35;4.60;;;2.80;;
1026;SDS011;502;48.746;9.214;2024-01-16T05:59:02;3.30;;;2.67;;
1026;SDS011;502;48.746;9.214;2024-01-16T06:01:29;4.00;;;3.60;;
1026;SDS011;502;48.746;9.214;2024-01-16T06:03:56;4.60;;;3.07;;
1026;SDS011;502;48.746;9.214;2024-01-16T06:06:22;5.50;;;3.03;;
1026;SDS011;502;48.746;9.214;2024-01-16T06:08:50;4.40;;;2.80;;
1026;SDS011;502;48.746;9.214;2024-01-16T06:11:18;4.77;;;3.53;;
1026;SDS011;502;48.746;9.214;2024-01-16T06:13:45;4.57;;;3.00;;
1026;SDS011;502;48.746;9.214;2024-01-16T06:16:14;6.30;;;3.70;;
1026;SDS011;502;48.746;9.214;2024-01-16T06:18:43;5.37;;;3.30;;
1026;SDS011;502;48.746;9.214;2024-01-16T06:21:11;4.57;;;2.90;;
1026;SDS011;502;48.746;9.214;2024-01-16T06:23:37;6.10;;;3.40;;
1026;SDS011;502;48.746;9.214;2024-01-16T06:26:05;4.67;;;3.50;;
1026;SDS011;502;48.746;9.214;2024-01-16T06:28:34;5.47;;;3.50;;
1026;SDS011;502;48.746;9.214;2024-01-16T06:31:00;5.83;;;3.17;;
1026;SDS011;502;48.746;9.214;2024-01-16T06:33:27;7.03;;;4.87;;
1026;SDS011;502;48.746;9.214;2024-01-16T06:35:54;5.00;;;3.80;;
1026;SDS011;502;48.746;9.214;2024-01-16T06:38:20;5.50;;;4.07;;
1026;SDS011;502;48.746;9.214;2024-01-16T06:40:47;6.80;;;4.20;;
1026;SDS011;502;48.746;9.214;2024-01-16T06:43:21;5.90;;;3.67;;
1026;SDS011;502;48.746;9.214;2024-01-16T06:45:48;5.27;;;3.67;;
1026;SDS011;502;48.746;9.214;2024-01-16T06:48:14;5.90;;;3.90;;
1026;SDS011;502;48.746;9.214;2024-01-16T06:50:41;4.53;;;2.97;;
1026;SDS011;502;48.746;9.214;2024-01-16T06:53:07;5.10;;;4.13;;
1026;SDS011;502;48.746;9.214;2024-01-16T06:55:34;5.30;;;4.17;;
1026;SDS011;502;48.746;9.214;2024-01-16T06:58:01;4.17;;;3.50;;
1026;SDS011;502;48.746;9.214;2024-01-16T07:00:29;6.20;;;3.17;;
1026;SDS011;502;48.746;9.214;2024-01-16T07:02:56;4.30;;;3.63;;
1026;SDS011;502;48.746;9.214;2024-01-16T07:05:23;5.77;;;4.80;;
1026;SDS011;502;48.746;9.214;2024-01-16T07:07:49;7.53;;;4.43;;
1026;SDS011;502;48.746;9.214;2024-01-16T07:10:16;4.93;;;3.47;;
1026;SDS011;502;48.746;9.214;2024-01-16T07:12:44;4.60;;;3.77;;
1026;SDS011;502;48.746;9.214;2024-01-16T07:15:10;4.70;;;3.80;;
1026;SDS011;502;48.746;9.214;2024-01-16T07:17:38;4.03;;;3.30;;
1026;SDS011;502;48.746;9.214;2024-01-16T07:20:05;4.93;;;3.97;;
1026;SDS011;502;48.746;9.214;2024-01-16T07:22:36;6.90;;;4.00;;
1026;SDS011;502;48.746;9.214;2024-01-16T07:25:04;5.87;;;3.70;;
1026;SDS011;502;48.746;9.214;2024-01-16T07:27:31;3.83;;;2.90;;
1026;SDS011;502;48.746;9.214;2024-01-16T07:29:58;6.23;;;3.70;;
1026;SDS011;502;48.746;9.214;2024-01-16T07:32:24;4.17;;;2.97;;
1026;SDS011;502;48.746;9.214;2024-01-16T07:34:52;3.60;;;3.17;;
1026;SDS011;502;48.746;9.214;2024-01-16T07:37:19;3.50;;;3.20;;
1026;SDS011;502;48.746;9.214;2024-01-16T07:39:45;3.63;;;2.87;;
1026;SDS011;502;48.746;9.214;2024-01-16T07:42:13;6.50;;;3.83;;
1026;SDS011;502;48.746;9.214;2024-01-16T07:44:39;5.20;;;3.50;;
1026;SDS011;502;48.746;9.214;2024-01-16T07:47:06;4.00;;;2.70;;
1026;SDS011;502;48.746;9.214;2024-01-16T07:49:33;4.97;;;3.20;;
1026;SDS011;502;48.746;9.214;2024-01-16T07:52:01;4.80;;;3.30;;
1026;SDS011;502;48.746;9.214;2024-01-16T07:54:27;4.43;;;3.13;;
1026;SDS011;502;48.746;9.214;2024-01-16T07:56:54;3.43;;;2.87;;
1026;SDS011;502;48.746;9.214;2024-01-16T07:59:20;3.90;;;3.20;;
1026;SDS011;502;48.746;9.214;2024-01-16T08:01:47;4.47;;;3.37;;
1026;SDS011;502;48.746;9.214;2024-01-16T08:04:14;5.47;;;2.90;;
1026;SDS011;502;48.746;9.214;2024-01-16T08:06:40;4.33;;;2.67;;
1026;SDS011;502;48.746;9.214;2024-01-16T08:09:08;5.10;;;3.07;;
1026;SDS011;502;48.746;9.214;2024-01-16T08:11:37;4.00;;;3.10;;
1026;SDS011;502;48.746;9.214;2024-01-16T08:14:04;4.53;;;3.40;;
1026;SDS011;502;48.746;9.214;2024-01-16T08:16:31;3.50;;;2.70;;
1026;SDS011;502;48.746;9.214;2024-01-16T08:18:57;4.10;;;3.27;;
1026;SDS011;502;48.746;9.214;2024-01-16T08:21:24;4.37;;;2.63;;
1026;SDS011;502;48.746;9.214;2024-01-16T08:23:51;3.40;;;2.80;;
1026;SDS011;502;48.746;9.214;2024-01-16T08:26:19;6.30;;;3.67;;
1026;SDS011;502;48.746;9.214;2024-01-16T08:28:46;3.83;;;2.60;;
1026;SDS011;502;48.746;9.214;2024-01-16T08:31:12;3.53;;;2.60;;
1026;SDS011;502;48.746;9.214;2024-01-16T08:33:39;4.67;;;2.50;;
1026;SDS011;502;48.746;9.214;2024-01-16T08:36:06;6.50;;;3.30;;
1026;SDS011;502;48.746;9.214;2024-01-16T08:38:32;5.80;;;3.70;;
1026;SDS011;502;48.746;9.214;2024-01-16T08:40:59;4.10;;;2.87;;
1026;SDS011;502;48.746;9.214;2024-01-16T08:43:27;3.70;;;2.50;;
1026;SDS011;502;48.746;9.214;2024-01-16T08:45:53;3.57;;;2.87;;
1026;SDS011;502;48.746;9.214;2024-01-16T08:48:20;3.80;;;2.90;;
1026;SDS011;502;48.746;9.214;2024-01-16T08:50:47;3.90;;;3.40;;
1026;SDS011;502;48.746;9.214;2024-01-16T08:53:13;4.60;;;2.80;;
1026;SDS011;502;48.746;9.214;2024-01-16T08:55:40;4.10;;;3.00;;
1026;SDS011;502;48.746;9.214;2024-01-16T08:58:06;4.40;;;3.43;;
1026;SDS011;502;48.746;9.214;2024-01-16T09:00:34;4.67;;;2.50;;
1026;SDS011;502;48.746;9.214;2024-01-16T09:03:03;4.00;;;3.03;;
1026;SDS011;502;48.746;9.214;2024-01-16T09:05:30;3.43;;;2.33;;
1026;SDS011;502;48.746;9.214;2024-01-16T09:07:56;3.10;;;2.40;;
1026;SDS011;502;48.746;9.214;2024-01-16T09:10:23;3.33;;;2.37;;
1026;SDS011;502;48.746;9.214;2024-01-16T09:12:49;4.50;;;2.80;;
1026;SDS011;502;48.746;9.214;2024-01-16T09:15:16;4.20;;;3.20;;
1026;SDS011;502;48.746;9.214;2024-01-16T09:17:44;3.73;;;2.87;;
1026;SDS011;502;48.746;9.214;2024-01-16T09:20:11;3.60;;;2.73;;
1026;SDS011;502;48.746;9.214;2024-01-16T09:22:37;4.43;;;3.10;;
1026;SDS011;502;48.746;9.214;2024-01-16T09:25:04;3.10;;;2.50;;
1026;SDS011;502;48.746;9.214;2024-01-16T09:27:31;3.00;;;2.70;;
1026;SDS011;502;48.746;9.214;2024-01-16T09:29:58;4.40;;;3.00;;
1026;SDS011;502;48.746;9.214;2024-01-16T09:32:24;3.80;;;3.20;;
1026;SDS011;502;48.746;9.214;2024-01-16T09:34:52;4.00;;;2.93;;
1026;SDS011;502;48.746;9.214;2024-01-16T09:40:24;4.67;;;3.10;;
1026;SDS011;502;48.746;9.214;2024-01-16T09:42:51;5.17;;;3.10;;
1026;SDS011;502;48.746;9.214;2024-01-16T09:45:18;4.87;;;3.23;;
1026;SDS011;502;48.746;9.214;2024-01-16T09:47:47;4.03;;;2.60;;
1026;SDS011;502;48.746;9.214;2024-01-16T09:50:15;3.30;;;2.27;;
1026;SDS011;502;48.746;9.214;2024-01-16T09:52:42;4.40;;;3.07;;
1026;SDS011;502;48.746;9.214;2024-01-16T09:55:09;4.40;;;3.00;;
1026;SDS011;502;48.746;9.214;2024-01-16T09:57:36;3.83;;;2.40;;
1026;SDS011;502;48.746;9.214;2024-01-16T10:03:06;4.57;;;3.00;;
1026;SDS011;502;48.746;9.214;2024-01-16T10:05:34;5.90;;;2.80;;
1026;SDS011;502;48.746;9.214;2024-01-16T10:08:01;3.37;;;2.50;;
1026;SDS011;502;48.746;9.214;2024-01-16T10:10:28;4.57;;;3.10;;
1026;SDS011;502;48.746;9.214;2024-01-16T10:12:54;3.70;;;2.80;;
1026;SDS011;502;48.746;9.214;2024-01-16T10:15:21;4.23;;;3.20;;
1026;SDS011;502;48.746;9.214;2024-01-16T10:17:48;4.10;;;3.13;;
1026;SDS011;502;48.746;9.214;2024-01-16T10:20:14;4.87;;;2.70;;
1026;SDS011;502;48.746;9.214;2024-01-16T10:22:53;4.70;;;2.80;;
1026;SDS011;502;48.746;9.214;2024-01-16T10:25:20;3.93;;;3.00;;
1026;SDS011;502;48.746;9.214;2024-01-16T10:27:48;3.43;;;2.70;;
1026;SDS011;502;48.746;9.214;2024-01-16T10:30:16;4.20;;;2.97;;
1026;SDS011;502;48.746;9.214;2024-01-16T10:32:50;4.30;;;3.17;;
1026;SDS011;502;48.746;9.214;2024-01-16T10:35:17;3.30;;;2.33;;
1026;SDS011;502;48.746;9.214;2024-01-16T10:37:46;4.97;;;3.00;;
1026;SDS011;502;48.746;9.214;2024-01-16T10:40:18;3.83;;;2.67;;
1026;SDS011;502;48.746;9.214;2024-01-16T10:42:45;4.13;;;2.90;;
1026;SDS011;502;48.746;9.214;2024-01-16T10:45:16;3.30;;;2.30;;
1026;SDS011;502;48.746;9.214;2024-01-16T10:47:47;4.13;;;2.80;;
1026;SDS011;502;48.746;9.214;2024-01-16T10:50:17;4.20;;;2.97;;
1026;SDS011;502;48.746;9.214;2024-01-16T10:52:46;4.63;;;2.80;;
1026;SDS011;502;48.746;9.214;2024-01-16T10:55:19;5.90;;;3.53;;
1026;SDS011;502;48.746;9.214;2024-01-16T10:57:48;3.87;;;2.83;;
1026;SDS011;502;48.746;9.214;2024-01-16T11:00:18;5.03;;;3.23;;
1026;SDS011;502;48.746;9.214;2024-01-16T11:02:49;5.17;;;3.57;;
1026;SDS011;502;48.746;9.214;2024-01-16T11:05:16;4.30;;;3.00;;
1026;SDS011;502;48.746;9.214;2024-01-16T11:07:43;6.07;;;3.83;;
1026;SDS011;502;48.746;9.214;2024-01-16T11:10:10;5.33;;;3.33;;
1026;SDS011;502;48.746;9.214;2024-01-16T11:12:39;5.17;;;3.20;;
1026;SDS011;502;48.746;9.214;2024-01-16T11:15:07;3.47;;;3.00;;
1026;SDS011;502;48.746;9.214;2024-01-16T11:17:35;3.37;;;2.60;;
1026;SDS011;502;48.746;9.214;2024-01-16T11:20:03;4.80;;;3.27;;
1026;SDS011;502;48.746;9.214;2024-01-16T11:22:36;6.07;;;3.37;;
1026;SDS011;502;48.746;9.214;2024-01-16T11:25:10;4.50;;;2.80;;
1026;SDS011;502;48.746;9.214;2024-01-16T11:27:38;4.70;;;3.00;;
1026;SDS011;502;48.746;9.214;2024-01-16T11:30:08;5.70;;;3.40;;
1026;SDS011;502;48.746;9.214;2024-01-16T11:32:36;5.27;;;3.10;;
1026;SDS011;502;48.746;9.214;2024-01-16T11:35:10;6.70;;;3.27;;
1026;SDS011;502;48.746;9.214;2024-01-16T11:37:36;4.93;;;3.23;;
1026;SDS011;502;48.746;9.214;2024-01-16T11:40:22;4.00;;;2.70;;
1026;SDS011;502;48.746;9.214;2024-01-16T11:42:52;6.40;;;3.43;;
1026;SDS011;502;48.746;9.214;2024-01-16T11:48:16;4.67;;;2.90;;
1026;SDS011;502;48.746;9.214;2024-01-16T11:50:43;5.70;;;2.97;;
1026;SDS011;502;48.746;9.214;2024-01-16T11:53:10;4.33;;;3.60;;
1026;SDS011;502;48.746;9.214;2024-01-16T11:55:42;4.37;;;3.27;;
1026;SDS011;502;48.746;9.214;2024-01-16T11:58:25;4.77;;;3.60;;
1026;SDS011;502;48.746;9.214;2024-01-16T12:00:58;5.57;;;4.00;;
1026;SDS011;502;48.746;9.214;2024-01-16T12:03:25;4.27;;;3.33;;
1026;SDS011;502;48.746;9.214;2024-01-16T12:05:54;6.27;;;4.07;;
1026;SDS011;502;48.746;9.214;2024-01-16T12:08:20;4.40;;;3.33;;
1026;SDS011;502;48.746;9.214;2024-01-16T12:10:47;5.27;;;2.57;;
1026;SDS011;502;48.746;9.214;2024-01-16T12:13:14;4.70;;;3.30;;
1026;SDS011;502;48.746;9.214;2024-01-16T12:15:43;7.90;;;2.77;;
1026;SDS011;502;48.746;9.214;2024-01-16T12:18:17;3.30;;;2.07;;
1026;SDS011;502;48.746;9.214;2024-01-16T12:20:44;3.53;;;2.30;;
1026;SDS011;502;48.746;9.214;2024-01-16T12:23:11;3.80;;;1.97;;
1026;SDS011;502;48.746;9.214;2024-01-16T12:25:37;4.90;;;2.80;;
1026;SDS011;502;48.746;9.214;2024-01-16T12:28:05;3.30;;;2.70;;
1026;SDS011;502;48.746;9.214;2024-01-16T12:30:36;4.33;;;2.47;;
1026;SDS011;502;48.746;9.214;2024-01-16T12:33:05;3.73;;;2.77;;
1026;SDS011;502;48.746;9.214;2024-01-16T12:35:36;5.20;;;3.70;;
1026;SDS011;502;48.746;9.214;2024-01-16T12:38:04;5.27;;;3.97;;
1026;SDS011;502;48.746;9.214;2024-01-16T12:40:31;3.10;;;2.33;;
1026;SDS011;502;48.746;9.214;2024-01-16T12:43:01;5.37;;;3.00;;
1026;SDS011;502;48.746;9.214;2024-01-16T12:45:31;3.90;;;2.97;;
1026;SDS011;502;48.746;9.214;2024-01-16T12:47:59;3.53;;;2.23;;
1026;SDS011;502;48.746;9.214;2024-01-16T12:50:27;4.23;;;2.80;;
1026;SDS011;502;48.746;9.214;2024-01-16T12:53:02;3.67;;;2.70;;
1026;SDS011;502;48.746;9.214;2024-01-16T12:55:30;4.20;;;3.20;;
1026;SDS011;502;48.746;9.214;2024-01-16T12:58:12;4.40;;;2.47;;
1026;SDS011;502;48.746;9.214;2024-01-16T13:00:42;3.93;;;2.83;;
1026;SDS011;502;48.746;9.214;2024-01-16T13:03:14;3.10;;;2.33;;
1026;SDS011;502;48.746;9.214;2024-01-16T13:05:43;4.47;;;3.40;;
1026;SDS011;502;48.746;9.214;2024-01-16T13:08:16;3.63;;;2.60;;
1026;SDS011;502;48.746;9.214;2024-01-16T13:10:43;4.30;;;3.17;;
1026;SDS011;502;48.746;9.214;2024-01-16T13:13:13;4.70;;;3.40;;
1026;SDS011;502;48.746;9.214;2024-01-16T13:15:40;4.83;;;2.80;;
1026;SDS011;502;48.746;9.214;2024-01-16T13:18:16;2.70;;;1.93;;
1026;SDS011;502;48.746;9.214;2024-01-16T13:20:45;3.70;;;2.73;;
1026;SDS011;502;48.746;9.214;2024-01-16T13:23:12;2.60;;;2.00;;
1026;SDS011;502;48.746;9.214;2024-01-16T13:25:39;3.70;;;2.70;;
1026;SDS011;502;48.746;9.214;2024-01-16T13:28:06;3.17;;;2.30;;
1026;SDS011;502;48.746;9.214;2024-01-16T13:30:33;3.30;;;2.17;;
1026;SDS011;502;48.746;9.214;2024-01-16T13:32:59;3.67;;;2.73;;
1026;SDS011;502;48.746;9.214;2024-01-16T13:35:26;5.20;;;3.10;;
1026;SDS011;502;48.746;9.214;2024-01-16T13:37:54;3.67;;;2.93;;
1026;SDS011;502;48.746;9.214;2024-01-16T13:40:21;4.07;;;2.70;;
1026;SDS011;502;48.746;9.214;2024-01-16T13:42:48;3.40;;;2.30;;
1026;SDS011;502;48.746;9.214;2024-01-16T13:45:14;2.60;;;1.93;;
1026;SDS011;502;48.746;9.214;2024-01-16T13:47:42;2.60;;;2.07;;
1026;SDS011;502;48.746;9.214;2024-01-16T13:50:08;2.90;;;2.13;;
1026;SDS011;502;48.746;9.214;2024-01-16T13:52:36;4.27;;;2.43;;
1026;SDS011;502;48.746;9.214;2024-01-16T13:55:04;3.73;;;2.70;;
1026;SDS011;502;48.746;9.214;2024-01-16T13:57:31;3.17;;;2.50;;
1026;SDS011;502;48.746;9.214;2024-01-16T14:00:00;3.37;;;2.40;;
1026;SDS011;502;48.746;9.214;2024-01-16T14:02:37;3.60;;;2.47;;
1026;SDS011;502;48.746;9.214;2024-01-16T14:05:05;4.27;;;2.47;;
1026;SDS011;502;48.746;9.214;2024-01-16T14:07:34;3.80;;;2.53;;
1026;SDS011;502;48.746;9.214;2024-01-16T14:10:01;2.80;;;2.47;;
1026;SDS011;502;48.746;9.214;2024-01-16T14:12:29;4.50;;;3.10;;
1026;SDS011;502;48.746;9.214;2024-01-16T14:14:55;4.20;;;2.67;;
1026;SDS011;502;48.746;9.214;2024-01-16T14:17:22;3.57;;;2.60;;
1026;SDS011;502;48.746;9.214;2024-01-16T14:19:48;3.97;;;2.40;;
1026;SDS011;502;48.746;9.214;2024-01-16T14:22:15;3.57;;;2.70;;
1026;SDS011;502;48.746;9.214;2024-01-16T14:24:41;4.00;;;2.23;;
1026;SDS011;502;48.746;9.214;2024-01-16T14:27:08;4.60;;;2.50;;
1026;SDS011;502;48.746;9.214;2024-01-16T14:29:38;3.00;;;2.10;;
1026;SDS011;502;48.746;9.214;2024-01-16T14:32:05;3.50;;;2.70;;
1026;SDS011;502;48.746;9.214;2024-01-16T14:34:31;3.30;;;2.63;;
1026;SDS011;502;48.746;9.214;2024-01-16T14:36:58;3.20;;;2.10;;
1026;SDS011;502;48.746;9.214;2024-01-16T14:39:24;4.70;;;2.67;;
1026;SDS011;502;48.746;9.214;2024-01-16T14:41:51;3.60;;;2.57;;
1026;SDS011;502;48.746;9.214;2024-01-16T14:44:18;4.50;;;2.70;;
1026;SDS011;502;48.746;9.214;2024-01-16T14:46:45;4.43;;;2.10;;
1026;SDS011;502;48.746;9.214;2024-01-16T14:49:12;4.27;;;2.80;;
1026;SDS011;502;48.746;9.214;2024-01-16T14:51:39;3.43;;;2.77;;
1026;SDS011;502;48.746;9.214;2024-01-16T14:54:05;5.67;;;4.10;;
1026;SDS011;502;48.746;9.214;2024-01-16T14:56:32;4.93;;;3.60;;
1026;SDS011;502;48.746;9.214;2024-01-16T14:58:58;3.87;;;2.90;;
1026;SDS011;502;48.746;9.214;2024-01-16T15:01:25;3.87;;;3.00;;
1026;SDS011;502;48.746;9.214;2024-01-16T15:03:53;6.17;;;3.50;;
1026;SDS011;502;48.746;9.214;2024-01-16T15:06:20;4.90;;;2.73;;
1026;SDS011;502;48.746;9.214;2024-01-16T15:08:47;5.67;;;2.30;;
1026;SDS011;502;48.746;9.214;2024-01-16T15:11:14;4.53;;;2.80;;
1026;SDS011;502;48.746;9.214;2024-01-16T15:13:42;3.30;;;2.67;;
1026;SDS011;502;48.746;9.214;2024-01-16T15:16:09;4.63;;;3.50;;
1026;SDS011;502;48.746;9.214;2024-01-16T15:18:36;4.17;;;3.33;;
1026;SDS011;502;48.746;9.214;2024-01-16T15:21:04;3.10;;;2.77;;
1026;SDS011;502;48.746;9.214;2024-01-16T15:23:33;5.40;;;3.00;;
1026;SDS011;502;48.746;9.214;2024-01-16T15:26:00;4.23;;;2.53;;
1026;SDS011;502;48.746;9.214;2024-01-16T15:28:28;6.63;;;3.07;;
1026;SDS011;502;48.746;9.214;2024-01-16T15:30:55;4.10;;;3.00;;
1026;SDS011;502;48.746;9.214;2024-01-16T15:33:23;4.97;;;3.70;;
1026;SDS011;502;48.746;9.214;2024-01-16T15:35:50;4.90;;;3.33;;
1026;SDS011;502;48.746;9.214;2024-01-16T15:38:18;5.03;;;3.40;;
1026;SDS011;502;48.746;9.214;2024-01-16T15:40:44;5.33;;;3.53;;
1026;SDS011;502;48.746;9.214;2024-01-16T15:43:11;4.53;;;3.20;;